Time,TemperatureF,DewpointF,PressureIn,WindDirection,WindDirectionDegrees,WindSpeedMPH,WindSpeedGustMPH,Humidity,HourlyPrecipIn,Conditions,Clouds,dailyrainin,SoftwareType,DateUTC
2013-03-27 00:00:00,29.3,11.1,30.06,WSW,255,0.0,0.0,46,0.00,,---,0.00,VWS V14.01,2013-03-27 06:00:00,
2013-03-27 00:05:00,29.5,10.8,30.06,WSW,256,0.0,4.0,45,0.00,,---,0.00,VWS V14.01,2013-03-27 06:05:00,
2013-03-27 00:10:00,29.8,11.1,30.06,SW,235,0.0,4.0,45,0.00,,---,0.00,VWS V14.01,2013-03-27 06:10:00,
2013-03-27 00:15:00,29.8,11.6,30.06,WSW,248,0.0,0.0,46,0.00,,---,0.00,VWS V14.01,2013-03-27 06:15:00,
2013-03-27 00:20:00,29.7,11.4,30.06,West,263,0.0,0.0,46,0.00,,---,0.00,VWS V14.01,2013-03-27 06:20:00,
2013-03-27 00:25:00,29.7,11.4,30.06,West,260,0.0,0.0,46,0.00,,---,0.00,VWS V14.01,2013-03-27 06:25:00,
2013-03-27 00:30:00,29.8,11.1,30.06,WSW,251,0.0,0.0,45,0.00,,---,0.00,VWS V14.01,2013-03-27 06:30:00,
2013-03-27 00:35:00,29.8,11.1,30.06,WSW,251,0.0,0.0,45,0.00,,---,0.00,VWS V14.01,2013-03-27 06:35:00,
2013-03-27 00:40:00,29.7,10.9,30.06,WSW,251,0.0,0.0,45,0.00,,---,0.00,VWS V14.01,2013-03-27 06:40:00,
2013-03-27 00:45:00,29.1,10.4,30.06,WSW,251,0.0,0.0,45,0.00,,---,0.00,VWS V14.01,2013-03-27 06:45:00,
2013-03-27 00:50:00,28.9,10.8,30.06,WSW,257,0.0,0.0,46,0.00,,---,0.00,VWS V14.01,2013-03-27 06:50:00,
2013-03-27 00:55:00,28.6,9.9,30.06,WSW,253,0.0,0.0,45,0.00,,---,0.00,VWS V14.01,2013-03-27 06:55:00,
2013-03-27 01:00:00,28.4,10.3,30.06,WSW,253,0.0,0.0,46,0.00,,---,0.00,VWS V14.01,2013-03-27 07:00:00,
2013-03-27 01:05:00,28.0,9.9,30.06,WSW,253,0.0,0.0,46,0.00,,---,0.00,VWS V14.01,2013-03-27 07:05:00,
2013-03-27 01:10:00,27.9,9.8,30.06,West,259,0.0,0.0,46,0.00,,---,0.00,VWS V14.01,2013-03-27 07:10:00,
2013-03-27 01:15:00,27.7,9.6,30.06,West,259,0.0,0.0,46,0.00,,---,0.00,VWS V14.01,2013-03-27 07:15:00,
2013-03-27 01:20:00,27.7,10.1,30.06,West,259,0.0,0.0,47,0.00,,---,0.00,VWS V14.01,2013-03-27 07:20:00,
2013-03-27 01:25:00,27.7,10.1,30.06,West,268,0.0,0.0,47,0.00,,---,0.00,VWS V14.01,2013-03-27 07:25:00,
2013-03-27 01:30:00,27.9,11.2,30.06,West,261,0.0,0.0,49,0.00,,---,0.00,VWS V14.01,2013-03-27 07:30:00,
2013-03-27 01:35:00,27.9,11.6,30.06,WSW,254,0.0,0.0,50,0.00,,---,0.00,VWS V14.01,2013-03-27 07:35:00,
2013-03-27 01:40:00,27.9,12.1,30.06,WSW,258,0.0,0.0,51,0.00,,---,0.00,VWS V14.01,2013-03-27 07:40:00,
2013-03-27 01:45:00,27.7,11.9,30.06,West,260,0.0,0.0,51,0.00,,---,0.00,VWS V14.01,2013-03-27 07:45:00,
2013-03-27 01:50:00,27.7,11.9,30.06,WSW,256,0.0,0.0,51,0.00,,---,0.00,VWS V14.01,2013-03-27 07:50:00,
2013-03-27 01:55:00,27.9,12.1,30.06,WSW,257,0.0,0.0,51,0.00,,---,0.00,VWS V14.01,2013-03-27 07:55:00,
2013-03-27 02:00:00,27.7,11.5,30.06,WSW,244,0.0,0.0,50,0.00,,---,0.00,VWS V14.01,2013-03-27 08:00:00,
2013-03-27 02:05:00,27.1,11.4,30.06,WSW,257,0.0,0.0,51,0.00,,---,0.00,VWS V14.01,2013-03-27 08:05:00,
2013-03-27 02:10:00,27.3,12.0,30.06,West,263,0.0,0.0,52,0.00,,---,0.00,VWS V14.01,2013-03-27 08:10:00,
2013-03-27 02:15:00,27.5,12.2,30.06,West,267,0.0,0.0,52,0.00,,---,0.00,VWS V14.01,2013-03-27 08:15:00,
2013-03-27 02:20:00,27.7,12.4,30.06,West,267,0.0,0.0,52,0.00,,---,0.00,VWS V14.01,2013-03-27 08:20:00,
2013-03-27 02:25:00,27.7,12.4,30.06,West,267,0.0,0.0,52,0.00,,---,0.00,VWS V14.01,2013-03-27 08:25:00,
2013-03-27 02:30:00,27.3,12.0,30.06,West,262,0.0,0.0,52,0.00,,---,0.00,VWS V14.01,2013-03-27 08:30:00,
2013-03-27 02:35:00,27.0,11.7,30.06,West,271,0.0,0.0,52,0.00,,---,0.00,VWS V14.01,2013-03-27 08:35:00,
2013-03-27 02:40:00,27.1,11.9,30.06,WSW,247,3.6,4.0,52,0.00,,---,0.00,VWS V14.01,2013-03-27 08:40:00,
2013-03-27 02:45:00,27.5,12.2,30.06,SSW,204,0.0,0.0,52,0.00,,---,0.00,VWS V14.01,2013-03-27 08:45:00,
2013-03-27 02:50:00,27.9,12.5,30.06,SSW,204,0.0,0.0,52,0.00,,---,0.00,VWS V14.01,2013-03-27 08:50:00,
2013-03-27 02:55:00,27.7,12.4,30.06,WSW,252,0.0,0.0,52,0.00,,---,0.00,VWS V14.01,2013-03-27 08:55:00,
2013-03-27 03:00:00,27.0,11.3,30.06,WSW,252,0.0,0.0,51,0.00,,---,0.00,VWS V14.01,2013-03-27 09:00:00,
2013-03-27 03:05:00,26.4,11.2,30.06,WSW,252,0.0,0.0,52,0.00,,---,0.00,VWS V14.01,2013-03-27 09:05:00,
2013-03-27 03:10:00,26.2,11.4,30.06,West,259,0.0,0.0,53,0.00,,---,0.00,VWS V14.01,2013-03-27 09:10:00,
2013-03-27 03:15:00,26.1,11.3,30.06,West,264,0.0,0.0,53,0.00,,---,0.00,VWS V14.01,2013-03-27 09:15:00,
2013-03-27 03:20:00,26.1,11.3,30.06,West,261,0.0,0.0,53,0.00,,---,0.00,VWS V14.01,2013-03-27 09:20:00,
2013-03-27 03:25:00,26.1,11.3,30.06,WSW,256,0.0,0.0,53,0.00,,---,0.00,VWS V14.01,2013-03-27 09:25:00,
2013-03-27 03:30:00,26.1,11.3,30.06,WSW,247,2.7,2.7,53,0.00,,---,0.00,VWS V14.01,2013-03-27 09:30:00,
2013-03-27 03:35:00,26.1,11.3,30.06,West,270,0.0,3.6,53,0.00,,---,0.00,VWS V14.01,2013-03-27 09:35:00,
2013-03-27 03:40:00,26.1,11.3,30.06,WSW,252,0.0,3.6,53,0.00,,---,0.00,VWS V14.01,2013-03-27 09:40:00,
2013-03-27 03:45:00,26.2,11.9,30.06,SW,236,0.0,0.0,54,0.00,,---,0.00,VWS V14.01,2013-03-27 09:45:00,
2013-03-27 03:50:00,26.4,12.0,30.06,WSW,249,0.0,0.0,54,0.00,,---,0.00,VWS V14.01,2013-03-27 09:50:00,
2013-03-27 03:55:00,26.4,12.0,30.06,WSW,255,0.0,0.0,54,0.00,,---,0.00,VWS V14.01,2013-03-27 09:55:00,
2013-03-27 04:00:00,26.4,11.6,30.03,WSW,244,0.0,0.0,53,0.00,,---,0.00,VWS V14.01,2013-03-27 10:00:00,
2013-03-27 04:05:00,26.2,11.4,30.03,WSW,253,0.0,0.0,53,0.00,,---,0.00,VWS V14.01,2013-03-27 10:05:00,
2013-03-27 04:10:00,26.1,11.3,30.03,WSW,257,0.0,0.0,53,0.00,,---,0.00,VWS V14.01,2013-03-27 10:10:00,
2013-03-27 04:15:00,25.9,11.5,30.06,WSW,257,0.0,0.0,54,0.00,,---,0.00,VWS V14.01,2013-03-27 10:15:00,
2013-03-27 04:20:00,26.2,12.3,30.06,WSW,241,0.0,0.0,55,0.00,,---,0.00,VWS V14.01,2013-03-27 10:20:00,
2013-03-27 04:25:00,27.0,12.6,30.06,WSW,248,0.0,0.0,54,0.00,,---,0.00,VWS V14.01,2013-03-27 10:25:00,
2013-03-27 04:30:00,27.7,13.2,30.03,WSW,240,3.1,3.1,54,0.00,,---,0.00,VWS V14.01,2013-03-27 10:30:00,
2013-03-27 04:35:00,28.4,13.9,30.03,WSW,255,0.0,4.0,54,0.00,,---,0.00,VWS V14.01,2013-03-27 10:35:00,
2013-03-27 04:40:00,28.6,13.6,30.03,SW,234,0.0,4.0,53,0.00,,---,0.00,VWS V14.01,2013-03-27 10:40:00,
2013-03-27 04:45:00,28.6,13.6,30.06,SW,234,0.0,0.0,53,0.00,,---,0.00,VWS V14.01,2013-03-27 10:45:00,
2013-03-27 04:50:00,28.6,13.6,30.06,WSW,241,0.0,0.0,53,0.00,,---,0.00,VWS V14.01,2013-03-27 10:50:00,
2013-03-27 04:55:00,28.6,13.6,30.06,WSW,241,0.0,0.0,53,0.00,,---,0.00,VWS V14.01,2013-03-27 10:55:00,
2013-03-27 05:00:00,28.6,13.6,30.06,SSW,192,0.0,0.0,53,0.00,,---,0.00,VWS V14.01,2013-03-27 11:00:00,
2013-03-27 05:05:00,28.9,14.0,30.06,SSW,192,0.0,0.0,53,0.00,,---,0.00,VWS V14.01,2013-03-27 11:05:00,
2013-03-27 05:10:00,28.9,14.0,30.06,SSW,196,0.0,0.0,53,0.00,,---,0.00,VWS V14.01,2013-03-27 11:10:00,
2013-03-27 05:15:00,29.1,14.1,30.06,WSW,246,0.0,0.0,53,0.00,,---,0.00,VWS V14.01,2013-03-27 11:15:00,
2013-03-27 05:20:00,28.9,14.0,30.06,WSW,246,0.0,0.0,53,0.00,,---,0.00,VWS V14.01,2013-03-27 11:20:00,
2013-03-27 05:25:00,28.8,13.8,30.06,WSW,246,0.0,0.0,53,0.00,,---,0.00,VWS V14.01,2013-03-27 11:25:00,
2013-03-27 05:30:00,28.9,14.0,30.06,WSW,243,0.0,0.0,53,0.00,,---,0.00,VWS V14.01,2013-03-27 11:30:00,
2013-03-27 05:35:00,29.1,14.1,30.06,WSW,243,0.0,0.0,53,0.00,,---,0.00,VWS V14.01,2013-03-27 11:35:00,
2013-03-27 05:40:00,28.9,14.0,30.06,WSW,246,0.0,0.0,53,0.00,,---,0.00,VWS V14.01,2013-03-27 11:40:00,
2013-03-27 05:45:00,28.8,13.8,30.06,WSW,246,0.0,0.0,53,0.00,,---,0.00,VWS V14.01,2013-03-27 11:45:00,
2013-03-27 05:50:00,28.6,14.1,30.06,WSW,250,0.0,0.0,54,0.00,,---,0.00,VWS V14.01,2013-03-27 11:50:00,
2013-03-27 05:55:00,28.6,14.1,30.06,WSW,250,0.0,0.0,54,0.00,,---,0.00,VWS V14.01,2013-03-27 11:55:00,
2013-03-27 06:00:00,28.6,14.1,30.06,WSW,250,0.0,0.0,54,0.00,,---,0.00,VWS V14.01,2013-03-27 12:00:00,
2013-03-27 06:05:00,28.4,13.9,30.06,WSW,250,0.0,0.0,54,0.00,,---,0.00,VWS V14.01,2013-03-27 12:05:00,
2013-03-27 06:10:00,28.0,13.6,30.06,WSW,250,0.0,0.0,54,0.00,,---,0.00,VWS V14.01,2013-03-27 12:10:00,
2013-03-27 06:15:00,27.9,13.4,30.03,WSW,250,0.0,0.0,54,0.00,,---,0.00,VWS V14.01,2013-03-27 12:15:00,
2013-03-27 06:20:00,27.9,13.4,30.03,WSW,250,0.0,0.0,54,0.00,,---,0.00,VWS V14.01,2013-03-27 12:20:00,
2013-03-27 06:25:00,27.7,13.6,30.03,WSW,250,0.0,0.0,55,0.00,,---,0.00,VWS V14.01,2013-03-27 12:25:00,
2013-03-27 06:30:00,27.7,13.6,30.06,WSW,250,0.0,0.0,55,0.00,,---,0.00,VWS V14.01,2013-03-27 12:30:00,
2013-03-27 06:35:00,27.5,13.5,30.06,WSW,250,0.0,0.0,55,0.00,,---,0.00,VWS V14.01,2013-03-27 12:35:00,
2013-03-27 06:40:00,27.1,13.1,30.06,WSW,250,0.0,0.0,55,0.00,,---,0.00,VWS V14.01,2013-03-27 12:40:00,
2013-03-27 06:45:00,27.5,13.5,30.06,WSW,250,0.0,0.0,55,0.00,,---,0.00,VWS V14.01,2013-03-27 12:45:00,
2013-03-27 06:50:00,27.9,13.8,30.06,WSW,250,0.0,0.0,55,0.00,,---,0.00,VWS V14.01,2013-03-27 12:50:00,
2013-03-27 06:55:00,28.0,14.0,30.06,WSW,250,0.0,0.0,55,0.00,,---,0.00,VWS V14.01,2013-03-27 12:55:00,
2013-03-27 07:00:00,28.2,14.1,30.06,WSW,250,0.0,0.0,55,0.00,,---,0.00,VWS V14.01,2013-03-27 13:00:00,
2013-03-27 07:05:00,28.2,14.6,30.06,WSW,250,0.0,0.0,56,0.00,,---,0.00,VWS V14.01,2013-03-27 13:05:00,
2013-03-27 07:10:00,28.2,14.6,30.06,WSW,250,0.0,0.0,56,0.00,,---,0.00,VWS V14.01,2013-03-27 13:10:00,
2013-03-27 07:15:00,28.2,14.6,30.06,WSW,250,0.0,0.0,56,0.00,,---,0.00,VWS V14.01,2013-03-27 13:15:00,
2013-03-27 07:20:00,28.0,14.4,30.06,WSW,250,0.0,0.0,56,0.00,,---,0.00,VWS V14.01,2013-03-27 13:20:00,
2013-03-27 07:25:00,27.9,14.2,30.06,WSW,250,0.0,0.0,56,0.00,,---,0.00,VWS V14.01,2013-03-27 13:25:00,
2013-03-27 07:30:00,27.7,14.0,30.06,WSW,250,0.0,0.0,56,0.00,,---,0.00,VWS V14.01,2013-03-27 13:30:00,
2013-03-27 07:35:00,27.9,14.2,30.06,West,278,0.0,0.0,56,0.00,,---,0.00,VWS V14.01,2013-03-27 13:35:00,
2013-03-27 07:40:00,28.0,14.8,30.06,South,173,0.0,0.0,57,0.00,,---,0.00,VWS V14.01,2013-03-27 13:40:00,
2013-03-27 07:45:00,28.2,15.0,30.06,WSW,253,0.0,0.0,57,0.00,,---,0.00,VWS V14.01,2013-03-27 13:45:00,
2013-03-27 07:50:00,28.6,15.3,30.06,NW,326,0.0,0.0,57,0.00,,---,0.00,VWS V14.01,2013-03-27 13:50:00,
2013-03-27 07:55:00,28.9,15.6,30.06,SSW,208,0.0,0.0,57,0.00,,---,0.00,VWS V14.01,2013-03-27 13:55:00,
2013-03-27 08:00:00,29.5,16.5,30.06,SW,221,0.0,0.0,58,0.00,,---,0.00,VWS V14.01,2013-03-27 14:00:00,
2013-03-27 08:05:00,30.0,16.6,30.06,SW,221,0.0,0.0,57,0.00,,---,0.00,VWS V14.01,2013-03-27 14:05:00,
2013-03-27 08:10:00,30.4,17.0,30.06,SW,221,0.0,0.0,57,0.00,,---,0.00,VWS V14.01,2013-03-27 14:10:00,
2013-03-27 08:15:00,30.7,17.3,30.06,SW,221,0.0,0.0,57,0.00,,---,0.00,VWS V14.01,2013-03-27 14:15:00,
2013-03-27 08:20:00,31.1,17.7,30.06,SW,221,0.0,0.0,57,0.00,,---,0.00,VWS V14.01,2013-03-27 14:20:00,
2013-03-27 08:25:00,31.8,18.3,30.06,SW,221,0.0,0.0,57,0.00,,---,0.00,VWS V14.01,2013-03-27 14:25:00,
2013-03-27 08:30:00,32.2,18.7,30.06,SW,221,0.0,0.0,57,0.00,,---,0.00,VWS V14.01,2013-03-27 14:30:00,
2013-03-27 08:35:00,32.5,18.6,30.06,SW,223,0.0,0.0,56,0.00,,---,0.00,VWS V14.01,2013-03-27 14:35:00,
2013-03-27 08:40:00,32.7,18.4,30.06,West,261,0.0,0.0,55,0.00,,---,0.00,VWS V14.01,2013-03-27 14:40:00,
2013-03-27 08:45:00,32.7,17.9,30.06,North,357,0.0,0.0,54,0.00,,---,0.00,VWS V14.01,2013-03-27 14:45:00,
2013-03-27 08:50:00,32.7,17.5,30.06,North,4,0.0,0.0,53,0.00,,---,0.00,VWS V14.01,2013-03-27 14:50:00,
2013-03-27 08:55:00,33.1,17.8,30.06,North,6,0.0,0.0,53,0.00,,---,0.00,VWS V14.01,2013-03-27 14:55:00,
2013-03-27 09:00:00,33.3,17.5,30.06,North,6,0.0,0.0,52,0.00,,---,0.00,VWS V14.01,2013-03-27 15:00:00,
2013-03-27 09:05:00,33.8,18.0,30.06,North,6,0.0,0.0,52,0.00,,---,0.00,VWS V14.01,2013-03-27 15:05:00,
2013-03-27 09:10:00,34.3,18.1,30.06,North,6,0.0,0.0,51,0.00,,---,0.00,VWS V14.01,2013-03-27 15:10:00,
2013-03-27 09:15:00,35.1,18.8,30.06,North,6,0.0,0.0,51,0.00,,---,0.00,VWS V14.01,2013-03-27 15:15:00,
2013-03-27 09:20:00,35.6,18.3,30.06,North,6,0.0,0.0,49,0.00,,---,0.00,VWS V14.01,2013-03-27 15:20:00,
2013-03-27 09:25:00,36.1,18.4,30.06,North,6,0.0,0.0,48,0.00,,---,0.00,VWS V14.01,2013-03-27 15:25:00,
2013-03-27 09:30:00,36.7,18.4,30.06,North,6,0.0,0.0,47,0.00,,---,0.00,VWS V14.01,2013-03-27 15:30:00,
2013-03-27 09:35:00,37.2,18.9,30.06,North,6,0.0,0.0,47,0.00,,---,0.00,VWS V14.01,2013-03-27 15:35:00,
2013-03-27 09:40:00,37.8,17.8,30.06,North,6,0.0,0.0,44,0.00,,---,0.00,VWS V14.01,2013-03-27 15:40:00,
2013-03-27 09:45:00,38.1,17.6,30.06,North,6,0.0,0.0,43,0.00,,---,0.00,VWS V14.01,2013-03-27 15:45:00,
2013-03-27 09:50:00,38.5,17.4,30.06,North,6,0.0,0.0,42,0.00,,---,0.00,VWS V14.01,2013-03-27 15:50:00,
2013-03-27 09:55:00,38.5,16.8,30.06,North,3,0.0,0.0,41,0.00,,---,0.00,VWS V14.01,2013-03-27 15:55:00,
2013-03-27 10:00:00,38.7,17.0,30.06,North,3,0.0,0.0,41,0.00,,---,0.00,VWS V14.01,2013-03-27 16:00:00,
2013-03-27 10:05:00,38.7,16.4,30.06,North,357,3.1,4.0,40,0.00,,---,0.00,VWS V14.01,2013-03-27 16:05:00,
2013-03-27 10:10:00,38.7,16.4,30.06,NNE,12,0.0,4.0,40,0.00,,---,0.00,VWS V14.01,2013-03-27 16:10:00,
2013-03-27 10:15:00,38.8,16.6,30.06,North,8,0.0,0.0,40,0.00,,---,0.00,VWS V14.01,2013-03-27 16:15:00,
2013-03-27 10:20:00,39.6,17.2,30.06,North,357,2.2,4.0,40,0.00,,---,0.00,VWS V14.01,2013-03-27 16:20:00,
2013-03-27 10:25:00,40.1,17.1,30.06,North,8,4.9,4.9,39,0.00,,---,0.00,VWS V14.01,2013-03-27 16:25:00,
2013-03-27 10:30:00,40.6,17.6,30.06,North,7,2.7,2.7,39,0.00,,---,0.00,VWS V14.01,2013-03-27 16:30:00,
2013-03-27 10:35:00,41.0,18.0,30.06,North,5,0.0,3.6,39,0.00,,---,0.00,VWS V14.01,2013-03-27 16:35:00,
2013-03-27 10:40:00,41.5,17.8,30.06,North,6,0.0,3.6,38,0.00,,---,0.00,VWS V14.01,2013-03-27 16:40:00,
2013-03-27 10:45:00,41.4,17.7,30.06,North,5,0.0,0.0,38,0.00,,---,0.00,VWS V14.01,2013-03-27 16:45:00,
2013-03-27 10:50:00,43.0,19.1,30.06,North,8,0.0,3.1,38,0.00,,---,0.00,VWS V14.01,2013-03-27 16:50:00,
2013-03-27 10:55:00,44.8,18.8,30.06,North,9,3.1,3.6,35,0.00,,---,0.00,VWS V14.01,2013-03-27 16:55:00,
2013-03-27 11:00:00,46.9,20.0,30.06,NE,48,0.0,0.0,34,0.00,,---,0.00,VWS V14.01,2013-03-27 17:00:00,
2013-03-27 11:05:00,47.8,19.4,30.06,NNE,19,0.0,0.0,32,0.00,,---,0.00,VWS V14.01,2013-03-27 17:05:00,
2013-03-27 11:10:00,48.7,19.5,30.06,NE,56,2.2,4.0,31,0.00,,---,0.00,VWS V14.01,2013-03-27 17:10:00,
2013-03-27 11:15:00,50.5,21.0,30.06,East,86,4.0,4.0,31,0.00,,---,0.00,VWS V14.01,2013-03-27 17:15:00,
2013-03-27 11:20:00,51.3,20.9,30.06,East,92,0.0,4.9,30,0.00,,---,0.00,VWS V14.01,2013-03-27 17:20:00,
2013-03-27 11:25:00,51.6,20.4,30.06,NNE,12,0.0,4.9,29,0.00,,---,0.00,VWS V14.01,2013-03-27 17:25:00,
2013-03-27 11:30:00,51.6,19.6,30.06,NE,52,3.6,3.6,28,0.00,,---,0.00,VWS V14.01,2013-03-27 17:30:00,
2013-03-27 11:35:00,52.0,19.9,30.06,ENE,65,0.0,4.0,28,0.00,,---,0.00,VWS V14.01,2013-03-27 17:35:00,
2013-03-27 11:40:00,51.6,19.6,30.06,North,0,0.0,4.9,28,0.00,,---,0.00,VWS V14.01,2013-03-27 17:40:00,
2013-03-27 11:45:00,51.8,18.9,30.06,WNW,293,0.0,0.0,27,0.00,,---,0.00,VWS V14.01,2013-03-27 17:45:00,
2013-03-27 11:50:00,52.9,19.8,30.06,North,0,3.1,3.1,27,0.00,,---,0.00,VWS V14.01,2013-03-27 17:50:00,
2013-03-27 11:55:00,51.6,18.8,30.06,NNW,337,2.7,5.8,27,0.00,,---,0.00,VWS V14.01,2013-03-27 17:55:00,
2013-03-27 12:00:00,50.7,18.0,30.06,NNW,344,4.9,4.9,27,0.00,,---,0.00,VWS V14.01,2013-03-27 18:00:00,
2013-03-27 12:05:00,51.6,18.8,30.06,North,4,2.7,5.4,27,0.00,,---,0.00,VWS V14.01,2013-03-27 18:05:00,
2013-03-27 12:10:00,53.1,20.0,30.06,NE,37,2.7,5.4,27,0.00,,---,0.00,VWS V14.01,2013-03-27 18:10:00,
2013-03-27 12:15:00,52.0,19.1,30.06,East,87,0.0,0.0,27,0.00,,---,0.00,VWS V14.01,2013-03-27 18:15:00,
2013-03-27 12:20:00,50.9,18.1,30.06,North,3,3.6,4.0,27,0.00,,---,0.00,VWS V14.01,2013-03-27 18:20:00,
2013-03-27 12:25:00,50.2,17.5,30.06,NW,316,0.0,4.0,27,0.00,,---,0.00,VWS V14.01,2013-03-27 18:25:00,
2013-03-27 12:30:00,50.4,17.7,30.06,NE,47,2.2,3.1,27,0.00,,---,0.00,VWS V14.01,2013-03-27 18:30:00,
2013-03-27 12:35:00,52.3,19.4,30.06,NE,54,0.0,3.1,27,0.00,,---,0.00,VWS V14.01,2013-03-27 18:35:00,
2013-03-27 12:40:00,54.5,20.3,30.06,ENE,65,0.0,3.1,26,0.00,,---,0.00,VWS V14.01,2013-03-27 18:40:00,
2013-03-27 12:45:00,55.4,21.1,30.06,North,3,4.0,4.9,26,0.00,,---,0.00,VWS V14.01,2013-03-27 18:45:00,
2013-03-27 12:50:00,56.3,21.0,30.06,North,0,3.1,4.9,25,0.00,,---,0.00,VWS V14.01,2013-03-27 18:50:00,
2013-03-27 12:55:00,57.2,21.7,30.06,SE,143,0.0,4.9,25,0.00,,---,0.00,VWS V14.01,2013-03-27 18:55:00,
2013-03-27 13:00:00,58.8,23.1,30.03,East,87,2.2,3.1,25,0.00,,---,0.00,VWS V14.01,2013-03-27 19:00:00,
2013-03-27 13:05:00,59.5,22.7,30.03,North,6,4.0,5.4,24,0.00,,---,0.00,VWS V14.01,2013-03-27 19:05:00,
2013-03-27 13:10:00,58.5,22.8,30.03,NNE,27,2.7,5.4,25,0.00,,---,0.00,VWS V14.01,2013-03-27 19:10:00,
2013-03-27 13:15:00,58.1,21.5,30.03,NNE,24,2.2,4.0,24,0.00,,---,0.00,VWS V14.01,2013-03-27 19:15:00,
2013-03-27 13:20:00,57.6,21.1,30.03,NNW,333,3.1,4.0,24,0.00,,---,0.00,VWS V14.01,2013-03-27 19:20:00,
2013-03-27 13:25:00,57.2,20.8,30.03,North,7,3.1,4.0,24,0.00,,---,0.00,VWS V14.01,2013-03-27 19:25:00,
2013-03-27 13:30:00,57.2,20.8,30.03,NNE,12,2.2,4.0,24,0.00,,---,0.00,VWS V14.01,2013-03-27 19:30:00,
2013-03-27 13:35:00,58.5,22.8,30.03,ENE,67,0.0,4.0,25,0.00,,---,0.00,VWS V14.01,2013-03-27 19:35:00,
2013-03-27 13:40:00,58.8,22.1,30.03,North,357,0.0,4.0,24,0.00,,---,0.00,VWS V14.01,2013-03-27 19:40:00,
2013-03-27 13:45:00,56.3,21.0,30.03,NNE,15,3.1,4.9,25,0.00,,---,0.00,VWS V14.01,2013-03-27 19:45:00,
2013-03-27 13:50:00,56.5,21.1,30.03,ENE,67,3.1,4.9,25,0.00,,---,0.00,VWS V14.01,2013-03-27 19:50:00,
2013-03-27 13:55:00,57.7,21.2,30.03,SSE,165,2.2,4.9,24,0.00,,---,0.00,VWS V14.01,2013-03-27 19:55:00,
2013-03-27 14:00:00,58.1,21.5,30.03,West,266,3.1,3.1,24,0.00,,---,0.00,VWS V14.01,2013-03-27 20:00:00,
2013-03-27 14:05:00,58.3,21.7,30.03,North,357,2.2,4.9,24,0.00,,---,0.00,VWS V14.01,2013-03-27 20:05:00,
2013-03-27 14:10:00,59.2,22.4,30.03,North,5,3.1,4.9,24,0.00,,---,0.00,VWS V14.01,2013-03-27 20:10:00,
2013-03-27 14:15:00,58.5,19.8,30.03,NNE,16,4.0,4.0,22,0.00,,---,0.00,VWS V14.01,2013-03-27 20:15:00,
2013-03-27 14:20:00,58.6,22.0,30.03,NE,40,0.0,4.0,24,0.00,,---,0.00,VWS V14.01,2013-03-27 20:20:00,
2013-03-27 14:25:00,61.0,20.8,30.03,NNE,12,3.6,4.5,21,0.00,,---,0.00,VWS V14.01,2013-03-27 20:25:00,
2013-03-27 14:30:00,61.2,20.9,30.03,North,5,4.9,4.9,21,0.00,,---,0.00,VWS V14.01,2013-03-27 20:30:00,
2013-03-27 14:35:00,62.2,21.9,30.03,NNE,28,3.1,4.9,21,0.00,,---,0.00,VWS V14.01,2013-03-27 20:35:00,
2013-03-27 14:40:00,62.4,22.0,30.03,South,186,3.1,4.9,21,0.00,,---,0.00,VWS V14.01,2013-03-27 20:40:00,
2013-03-27 14:45:00,62.6,22.1,30.03,South,179,3.1,3.6,21,0.00,,---,0.00,VWS V14.01,2013-03-27 20:45:00,
2013-03-27 14:50:00,60.4,21.4,30.03,NNE,12,2.7,5.8,22,0.00,,---,0.00,VWS V14.01,2013-03-27 20:50:00,
2013-03-27 14:55:00,59.5,20.7,30.03,WNW,300,0.0,5.8,22,0.00,,---,0.00,VWS V14.01,2013-03-27 20:55:00,
2013-03-27 15:00:00,61.7,21.4,30.03,East,86,0.0,0.0,21,0.00,,---,0.00,VWS V14.01,2013-03-27 21:00:00,
2013-03-27 15:05:00,65.5,23.4,30.03,North,0,4.0,4.0,20,0.00,,---,0.00,VWS V14.01,2013-03-27 21:05:00,
2013-03-27 15:10:00,65.8,21.2,30.03,NNW,327,2.2,5.4,18,0.00,,---,0.00,VWS V14.01,2013-03-27 21:10:00,
2013-03-27 15:15:00,65.1,20.6,30.00,East,101,3.1,3.1,18,0.00,,---,0.00,VWS V14.01,2013-03-27 21:15:00,
2013-03-27 15:20:00,65.5,23.4,30.00,SSE,148,2.7,3.6,20,0.00,,---,0.00,VWS V14.01,2013-03-27 21:20:00,
2013-03-27 15:25:00,64.0,19.7,30.00,South,190,2.2,4.0,18,0.00,,---,0.00,VWS V14.01,2013-03-27 21:25:00,
2013-03-27 15:30:00,62.4,19.6,30.00,South,190,0.0,0.0,19,0.00,,---,0.00,VWS V14.01,2013-03-27 21:30:00,
2013-03-27 15:35:00,61.9,19.2,30.00,South,190,0.0,0.0,19,0.00,,---,0.00,VWS V14.01,2013-03-27 21:35:00,
2013-03-27 15:40:00,60.4,18.0,30.00,North,3,0.0,0.0,19,0.00,,---,0.00,VWS V14.01,2013-03-27 21:40:00,
2013-03-27 15:45:00,61.5,18.9,30.00,NNE,14,0.0,0.0,19,0.00,,---,0.00,VWS V14.01,2013-03-27 21:45:00,
2013-03-27 15:50:00,64.0,19.7,30.00,North,0,0.0,0.0,18,0.00,,---,0.00,VWS V14.01,2013-03-27 21:50:00,
2013-03-27 15:55:00,65.1,20.6,30.00,SSW,196,0.0,0.0,18,0.00,,---,0.00,VWS V14.01,2013-03-27 21:55:00,
2013-03-27 16:00:00,65.1,20.6,30.00,North,4,3.6,4.0,18,0.00,,---,0.00,VWS V14.01,2013-03-27 22:00:00,
2013-03-27 16:05:00,64.8,20.3,30.00,NE,50,2.2,5.4,18,0.00,,---,0.00,VWS V14.01,2013-03-27 22:05:00,
2013-03-27 16:10:00,64.9,20.4,30.00,ENE,77,5.4,5.4,18,0.00,,---,0.00,VWS V14.01,2013-03-27 22:10:00,
2013-03-27 16:15:00,64.6,20.1,30.00,NNE,26,0.0,0.0,18,0.00,,---,0.00,VWS V14.01,2013-03-27 22:15:00,
2013-03-27 16:20:00,64.6,20.1,30.00,North,10,0.0,0.0,18,0.00,,---,0.00,VWS V14.01,2013-03-27 22:20:00,
2013-03-27 16:25:00,61.7,19.0,30.00,North,357,0.0,6.3,19,0.00,,---,0.00,VWS V14.01,2013-03-27 22:25:00,
2013-03-27 16:30:00,60.3,17.9,30.00,NNE,18,4.9,4.9,19,0.00,,---,0.00,VWS V14.01,2013-03-27 22:30:00,
2013-03-27 16:35:00,59.4,17.1,30.00,North,3,0.0,5.4,19,0.00,,---,0.00,VWS V14.01,2013-03-27 22:35:00,
2013-03-27 16:40:00,59.2,17.0,30.00,North,6,3.1,5.4,19,0.00,,---,0.00,VWS V14.01,2013-03-27 22:40:00,
2013-03-27 16:45:00,59.2,17.0,30.00,NW,319,2.2,2.2,19,0.00,,---,0.00,VWS V14.01,2013-03-27 22:45:00,
2013-03-27 16:50:00,59.2,17.0,30.00,NNW,340,2.7,5.4,19,0.00,,---,0.00,VWS V14.01,2013-03-27 22:50:00,
2013-03-27 16:55:00,59.0,16.8,30.00,North,8,3.6,5.4,19,0.00,,---,0.00,VWS V14.01,2013-03-27 22:55:00,
2013-03-27 17:00:00,58.6,16.5,30.00,North,6,3.1,3.6,19,0.00,,---,0.00,VWS V14.01,2013-03-27 23:00:00,
2013-03-27 17:05:00,58.5,16.4,30.00,North,2,0.0,4.9,19,0.00,,---,0.00,VWS V14.01,2013-03-27 23:05:00,
2013-03-27 17:10:00,58.5,16.4,30.00,North,3,0.0,4.9,19,0.00,,---,0.00,VWS V14.01,2013-03-27 23:10:00,
2013-03-27 17:15:00,58.5,16.4,30.00,NNW,336,0.0,0.0,19,0.00,,---,0.00,VWS V14.01,2013-03-27 23:15:00,
2013-03-27 17:20:00,58.1,16.1,30.00,North,353,0.0,4.0,19,0.00,,---,0.00,VWS V14.01,2013-03-27 23:20:00,
2013-03-27 17:25:00,58.1,16.1,30.00,North,357,3.1,5.8,19,0.00,,---,0.00,VWS V14.01,2013-03-27 23:25:00,
2013-03-27 17:30:00,57.9,15.9,30.00,NW,322,3.6,3.6,19,0.00,,---,0.00,VWS V14.01,2013-03-27 23:30:00,
2013-03-27 17:35:00,57.6,15.6,30.00,North,353,2.7,5.8,19,0.00,,---,0.00,VWS V14.01,2013-03-27 23:35:00,
2013-03-27 17:40:00,56.7,18.3,30.00,NNW,343,7.6,7.6,22,0.00,,---,0.00,VWS V14.01,2013-03-27 23:40:00,
2013-03-27 17:45:00,55.8,17.5,30.00,NNW,348,3.1,4.0,22,0.00,,---,0.00,VWS V14.01,2013-03-27 23:45:00,
2013-03-27 17:50:00,55.2,18.1,30.00,NNW,346,3.1,5.8,23,0.00,,---,0.00,VWS V14.01,2013-03-27 23:50:00,
2013-03-27 17:55:00,55.0,17.9,30.00,NW,315,5.4,5.8,23,0.00,,---,0.00,VWS V14.01,2013-03-27 23:55:00,
2013-03-27 18:00:00,54.9,19.7,30.03,NW,319,4.0,4.0,25,0.00,,---,0.00,VWS V14.01,2013-03-28 00:00:00,
2013-03-27 18:06:00,54.9,19.7,30.03,North,1,6.3,6.3,25,0.00,,---,0.00,VWS V14.01,2013-03-28 00:06:00,
2013-03-27 18:11:00,54.7,19.6,30.03,NNW,337,2.7,6.3,25,0.00,,---,0.00,VWS V14.01,2013-03-28 00:11:00,
2013-03-27 18:16:00,55.0,19.9,30.03,North,0,2.7,3.6,25,0.00,,---,0.00,VWS V14.01,2013-03-28 00:16:00,
2013-03-27 18:21:00,55.0,20.8,30.03,NNW,340,3.6,6.3,26,0.00,,---,0.00,VWS V14.01,2013-03-28 00:21:00,
2013-03-27 18:26:00,55.0,20.8,30.03,North,8,2.7,6.3,26,0.00,,---,0.00,VWS V14.01,2013-03-28 00:26:00,
2013-03-27 18:31:00,54.9,20.6,30.03,North,357,6.3,6.3,26,0.00,,---,0.00,VWS V14.01,2013-03-28 00:31:00,
2013-03-27 18:36:00,54.7,20.5,30.03,North,1,5.4,6.3,26,0.00,,---,0.00,VWS V14.01,2013-03-28 00:36:00,
2013-03-27 18:41:00,54.3,20.2,30.03,North,0,3.1,6.3,26,0.00,,---,0.00,VWS V14.01,2013-03-28 00:41:00,
2013-03-27 18:46:00,54.1,20.0,30.03,North,353,5.8,5.8,26,0.00,,---,0.00,VWS V14.01,2013-03-28 00:46:00,
2013-03-27 18:51:00,54.0,19.9,30.03,North,9,5.4,5.8,26,0.00,,---,0.00,VWS V14.01,2013-03-28 00:51:00,
2013-03-27 18:56:00,53.8,19.7,30.03,North,353,3.6,7.6,26,0.00,,---,0.00,VWS V14.01,2013-03-28 00:56:00,
2013-03-27 19:01:00,53.6,19.6,30.03,North,357,3.6,8.3,26,0.00,,---,0.00,VWS V14.01,2013-03-28 01:01:00,
2013-03-27 19:06:00,53.4,20.3,30.03,North,357,3.6,8.3,27,0.00,,---,0.00,VWS V14.01,2013-03-28 01:06:00,
2013-03-27 19:11:00,53.2,20.1,30.03,NNE,20,4.9,8.3,27,0.00,,---,0.00,VWS V14.01,2013-03-28 01:11:00,
2013-03-27 19:16:00,52.2,20.9,30.03,NNE,15,4.0,4.9,29,0.00,,---,0.00,VWS V14.01,2013-03-28 01:16:00,
2013-03-27 19:21:00,50.4,22.4,30.03,NNE,30,3.1,4.9,33,0.00,,---,0.00,VWS V14.01,2013-03-28 01:21:00,
2013-03-27 19:26:00,50.0,24.1,30.03,NNE,20,5.4,5.8,36,0.00,,---,0.00,VWS V14.01,2013-03-28 01:26:00,
2013-03-27 19:31:00,50.2,22.9,30.06,NNE,13,3.1,5.8,34,0.00,,---,0.00,VWS V14.01,2013-03-28 01:31:00,
2013-03-27 19:36:00,48.9,23.8,30.06,North,357,0.0,5.8,37,0.00,,---,0.00,VWS V14.01,2013-03-28 01:36:00,
2013-03-27 19:41:00,47.8,23.5,30.06,North,357,0.0,5.8,38,0.00,,---,0.00,VWS V14.01,2013-03-28 01:41:00,
2013-03-27 19:46:00,48.0,24.3,30.06,North,0,0.0,0.0,39,0.00,,---,0.00,VWS V14.01,2013-03-28 01:46:00,
2013-03-27 19:51:00,48.9,24.5,30.06,North,353,0.0,0.0,38,0.00,,---,0.00,VWS V14.01,2013-03-28 01:51:00,
2013-03-27 19:56:00,49.3,24.8,30.06,North,353,0.0,0.0,38,0.00,,---,0.00,VWS V14.01,2013-03-28 01:56:00,
2013-03-27 20:01:00,49.5,24.3,30.06,North,0,0.0,0.0,37,0.00,,---,0.00,VWS V14.01,2013-03-28 02:01:00,
2013-03-27 20:06:00,49.5,24.3,30.06,North,0,0.0,0.0,37,0.00,,---,0.00,VWS V14.01,2013-03-28 02:06:00,
2013-03-27 20:11:00,49.5,24.3,30.06,North,0,0.0,0.0,37,0.00,,---,0.00,VWS V14.01,2013-03-28 02:11:00,
2013-03-27 20:16:00,49.5,24.3,30.06,NW,324,0.0,0.0,37,0.00,,---,0.00,VWS V14.01,2013-03-28 02:16:00,
2013-03-27 20:21:00,49.5,24.3,30.06,SSW,197,3.1,3.1,37,0.00,,---,0.00,VWS V14.01,2013-03-28 02:21:00,
2013-03-27 20:26:00,49.5,24.3,30.06,SSE,153,3.1,4.0,37,0.00,,---,0.00,VWS V14.01,2013-03-28 02:26:00,
2013-03-27 20:31:00,49.5,24.3,30.06,SSW,195,3.1,4.0,37,0.00,,---,0.00,VWS V14.01,2013-03-28 02:31:00,
2013-03-27 20:36:00,49.5,24.3,30.06,SSW,204,5.4,8.3,37,0.00,,---,0.00,VWS V14.01,2013-03-28 02:36:00,
2013-03-27 20:41:00,47.8,23.5,30.09,SE,127,3.1,8.3,38,0.00,,---,0.00,VWS V14.01,2013-03-28 02:41:00,
2013-03-27 20:46:00,46.6,22.4,30.09,East,93,2.2,2.2,38,0.00,,---,0.00,VWS V14.01,2013-03-28 02:46:00,
2013-03-27 20:51:00,46.6,22.4,30.09,ESE,107,0.0,2.7,38,0.00,,---,0.00,VWS V14.01,2013-03-28 02:51:00,
2013-03-27 20:56:00,46.6,22.4,30.09,ESE,107,0.0,2.7,38,0.00,,---,0.00,VWS V14.01,2013-03-28 02:56:00,
2013-03-27 21:01:00,46.6,22.4,30.09,ESE,107,0.0,0.0,38,0.00,,---,0.00,VWS V14.01,2013-03-28 03:01:00,
2013-03-27 21:06:00,42.6,21.7,30.09,SSW,210,0.0,0.0,43,0.00,,---,0.00,VWS V14.01,2013-03-28 03:06:00,
2013-03-27 21:11:00,41.4,23.2,30.09,SSW,210,0.0,0.0,48,0.00,,---,0.00,VWS V14.01,2013-03-28 03:11:00,
2013-03-27 21:16:00,40.6,23.0,30.09,SSW,210,0.0,0.0,49,0.00,,---,0.00,VWS V14.01,2013-03-28 03:16:00,
2013-03-27 21:21:00,40.1,23.0,30.09,SW,231,0.0,0.0,50,0.00,,---,0.00,VWS V14.01,2013-03-28 03:21:00,
2013-03-27 21:26:00,39.7,23.1,30.06,SW,234,0.0,0.0,51,0.00,,---,0.00,VWS V14.01,2013-03-28 03:26:00,
2013-03-27 21:31:00,39.7,25.8,30.06,WSW,257,0.0,0.0,57,0.00,,---,0.00,VWS V14.01,2013-03-28 03:31:00,
2013-03-27 21:36:00,39.4,26.7,30.06,WNW,301,0.0,0.0,60,0.00,,---,0.00,VWS V14.01,2013-03-28 03:36:00,
2013-03-27 21:41:00,39.4,27.9,30.09,West,267,0.0,3.1,63,0.00,,---,0.00,VWS V14.01,2013-03-28 03:41:00,
2013-03-27 21:46:00,39.0,27.9,30.09,West,272,0.0,0.0,64,0.00,,---,0.00,VWS V14.01,2013-03-28 03:46:00,
2013-03-27 21:52:00,38.5,27.0,30.09,West,275,0.0,0.0,63,0.00,,---,0.00,VWS V14.01,2013-03-28 03:52:00,
2013-03-27 21:56:00,37.9,26.1,30.09,SSW,199,0.0,4.0,62,0.00,,---,0.00,VWS V14.01,2013-03-28 03:56:00,
2013-03-27 22:00:00,37.8,25.9,30.09,SSW,199,0.0,0.0,62,0.00,,---,0.00,VWS V14.01,2013-03-28 04:00:00,
2013-03-27 22:05:00,37.2,25.0,30.09,SSW,199,0.0,0.0,61,0.00,,---,0.00,VWS V14.01,2013-03-28 04:05:00,
2013-03-27 22:10:00,36.9,24.3,30.09,SSW,199,0.0,0.0,60,0.00,,---,0.00,VWS V14.01,2013-03-28 04:10:00,
2013-03-27 22:15:00,36.7,24.5,30.09,SSW,199,0.0,0.0,61,0.00,,---,0.00,VWS V14.01,2013-03-28 04:15:00,
2013-03-27 22:20:00,36.3,24.2,30.09,SSW,199,0.0,0.0,61,0.00,,---,0.00,VWS V14.01,2013-03-28 04:20:00,
2013-03-27 22:25:00,35.8,23.3,30.09,SW,224,0.0,0.0,60,0.00,,---,0.00,VWS V14.01,2013-03-28 04:25:00,
2013-03-27 22:30:00,35.6,23.1,30.09,WSW,245,0.0,0.0,60,0.00,,---,0.00,VWS V14.01,2013-03-28 04:30:00,
2013-03-27 22:35:00,35.4,22.9,30.09,SE,136,2.7,2.7,60,0.00,,---,0.00,VWS V14.01,2013-03-28 04:35:00,
2013-03-27 22:40:00,35.2,23.1,30.09,SSW,197,0.0,3.1,61,0.00,,---,0.00,VWS V14.01,2013-03-28 04:40:00,
2013-03-27 22:45:00,35.1,23.0,30.09,SSW,207,0.0,0.0,61,0.00,,---,0.00,VWS V14.01,2013-03-28 04:45:00,
2013-03-27 22:50:00,34.7,22.6,30.09,SSW,208,0.0,0.0,61,0.00,,---,0.00,VWS V14.01,2013-03-28 04:50:00,
2013-03-27 22:55:00,34.5,22.9,30.09,SSW,208,0.0,0.0,62,0.00,,---,0.00,VWS V14.01,2013-03-28 04:55:00,
2013-03-27 23:00:00,34.3,22.3,30.09,WSW,249,0.0,0.0,61,0.00,,---,0.00,VWS V14.01,2013-03-28 05:00:00,
2013-03-27 23:05:00,34.7,23.0,30.09,West,265,0.0,0.0,62,0.00,,---,0.00,VWS V14.01,2013-03-28 05:05:00,
2013-03-27 23:10:00,35.1,23.8,30.09,West,265,0.0,0.0,63,0.00,,---,0.00,VWS V14.01,2013-03-28 05:10:00,
2013-03-27 23:15:00,34.9,23.6,30.09,West,265,0.0,0.0,63,0.00,,---,0.00,VWS V14.01,2013-03-28 05:15:00,
2013-03-27 23:20:00,34.7,23.4,30.09,South,176,0.0,0.0,63,0.00,,---,0.00,VWS V14.01,2013-03-28 05:20:00,
2013-03-27 23:25:00,34.3,23.1,30.09,South,176,0.0,0.0,63,0.00,,---,0.00,VWS V14.01,2013-03-28 05:25:00,
2013-03-27 23:30:00,34.2,22.9,30.09,SW,222,0.0,0.0,63,0.00,,---,0.00,VWS V14.01,2013-03-28 05:30:00,
2013-03-27 23:35:00,34.2,22.9,30.09,SW,222,0.0,0.0,63,0.00,,---,0.00,VWS V14.01,2013-03-28 05:35:00,
2013-03-27 23:40:00,34.2,23.3,30.09,SW,222,0.0,0.0,64,0.00,,---,0.00,VWS V14.01,2013-03-28 05:40:00,
2013-03-27 23:45:00,34.3,23.8,30.09,SW,222,0.0,0.0,65,0.00,,---,0.00,VWS V14.01,2013-03-28 05:45:00,
2013-03-27 23:50:00,34.5,24.0,30.09,SSW,205,0.0,0.0,65,0.00,,---,0.00,VWS V14.01,2013-03-28 05:50:00,
2013-03-27 23:55:00,34.7,23.8,30.09,SW,215,0.0,0.0,64,0.00,,---,0.00,VWS V14.01,2013-03-28 05:55:00,